sensor_id;sensor_type;location;lat;lon;timestamp;pressure;altitude;pressure_sealevel;temperature;humidity
26807;BME280;14380;49.910;6.792;2022-11-25T00:00:49;98524.31;;;6.02;100.00
26807;BME280;14380;49.910;6.792;2022-11-25T00:03:17;98520.53;;;6.09;100.00
26807;BME280;14380;49.910;6.792;2022-11-25T00:05:44;98522.75;;;5.96;100.00
26807;BME280;14380;49.910;6.792;2022-11-25T00:08:10;98519.69;;;6.09;100.00
26807;BME280;14380;49.910;6.792;2022-11-25T00:10:36;98516.59;;;5.98;100.00
26807;BME280;14380;49.910;6.792;2022-11-25T00:13:03;98518.38;;;5.97;100.00
26807;BME280;14380;49.910;6.792;2022-11-25T00:15:30;98514.84;;;5.98;100.00
26807;BME280;14380;49.910;6.792;2022-11-25T00:17:56;98514.78;;;6.00;100.00
26807;BME280;14380;49.910;6.792;2022-11-25T00:20:24;98515.66;;;6.00;100.00
26807;BME280;14380;49.910;6.792;2022-11-25T00:22:50;98515.84;;;5.95;100.00
26807;BME280;14380;49.910;6.792;2022-11-25T00:25:17;98513.41;;;6.13;100.00
26807;BME280;14380;49.910;6.792;2022-11-25T00:27:43;98509.19;;;5.87;100.00
26807;BME280;14380;49.910;6.792;2022-11-25T00:30:10;98505.88;;;5.81;100.00
26807;BME280;14380;49.910;6.792;2022-11-25T00:32:37;98499.25;;;5.95;100.00
26807;BME280;14380;49.910;6.792;2022-11-25T00:35:04;98493.22;;;6.15;100.00
26807;BME280;14380;49.910;6.792;2022-11-25T00:37:32;98501.66;;;6.01;100.00
26807;BME280;14380;49.910;6.792;2022-11-25T00:39:59;98496.16;;;6.07;100.00
26807;BME280;14380;49.910;6.792;2022-11-25T00:42:25;98495.91;;;6.14;100.00
26807;BME280;14380;49.910;6.792;2022-11-25T00:45:09;98490.34;;;5.99;100.00
26807;BME280;14380;49.910;6.792;2022-11-25T00:47:35;98489.69;;;5.94;100.00
26807;BME280;14380;49.910;6.792;2022-11-25T00:50:03;98494.50;;;6.05;100.00
26807;BME280;14380;49.910;6.792;2022-11-25T00:52:29;98493.59;;;6.06;100.00
26807;BME280;14380;49.910;6.792;2022-11-25T00:55:03;98481.91;;;6.15;100.00
26807;BME280;14380;49.910;6.792;2022-11-25T00:57:29;98487.25;;;6.12;100.00
26807;BME280;14380;49.910;6.792;2022-11-25T00:59:56;98476.13;;;6.27;100.00
26807;BME280;14380;49.910;6.792;2022-11-25T01:02:22;98477.94;;;6.25;100.00
26807;BME280;14380;49.910;6.792;2022-11-25T01:04:49;98475.75;;;6.16;100.00
26807;BME280;14380;49.910;6.792;2022-11-25T01:07:16;98463.34;;;6.19;100.00
26807;BME280;14380;49.910;6.792;2022-11-25T01:09:42;98468.00;;;6.13;100.00
26807;BME280;14380;49.910;6.792;2022-11-25T01:12:10;98468.78;;;6.15;100.00
26807;BME280;14380;49.910;6.792;2022-11-25T01:14:37;98475.91;;;6.11;100.00
26807;BME280;14380;49.910;6.792;2022-11-25T01:17:04;98465.84;;;6.22;100.00
26807;BME280;14380;49.910;6.792;2022-11-25T01:19:30;98467.41;;;6.27;100.00
26807;BME280;14380;49.910;6.792;2022-11-25T01:21:57;98471.28;;;6.18;100.00
26807;BME280;14380;49.910;6.792;2022-11-25T01:24:23;98479.31;;;6.13;100.00
26807;BME280;14380;49.910;6.792;2022-11-25T01:26:52;98469.75;;;6.12;100.00
26807;BME280;14380;49.910;6.792;2022-11-25T01:29:21;98482.69;;;6.17;100.00
26807;BME280;14380;49.910;6.792;2022-11-25T01:31:47;98482.69;;;6.17;100.00
26807;BME280;14380;49.910;6.792;2022-11-25T01:34:16;98481.44;;;6.25;100.00
26807;BME280;14380;49.910;6.792;2022-11-25T01:36:43;98480.41;;;6.30;100.00
26807;BME280;14380;49.910;6.792;2022-11-25T01:39:14;98471.97;;;6.42;100.00
26807;BME280;14380;49.910;6.792;2022-11-25T01:41:41;98470.50;;;6.36;100.00
26807;BME280;14380;49.910;6.792;2022-11-25T01:44:11;98471.41;;;6.35;100.00
26807;BME280;14380;49.910;6.792;2022-11-25T01:46:46;98471.16;;;6.42;100.00
26807;BME280;14380;49.910;6.792;2022-11-25T01:49:15;98470.28;;;6.41;100.00
26807;BME280;14380;49.910;6.792;2022-11-25T01:51:45;98467.22;;;6.31;100.00
26807;BME280;14380;49.910;6.792;2022-11-25T01:54:15;98466.28;;;6.32;100.00
26807;BME280;14380;49.910;6.792;2022-11-25T01:56:45;98458.28;;;6.35;100.00
26807;BME280;14380;49.910;6.792;2022-11-25T01:59:15;98460.78;;;6.38;100.00
26807;BME280;14380;49.910;6.792;2022-11-25T02:01:43;98457.69;;;6.49;100.00
26807;BME280;14380;49.910;6.792;2022-11-25T02:04:11;98456.25;;;6.42;100.00
26807;BME280;14380;49.910;6.792;2022-11-25T02:06:45;98459.94;;;6.38;100.00
26807;BME280;14380;49.910;6.792;2022-11-25T02:09:13;98456.53;;;6.36;100.00
26807;BME280;14380;49.910;6.792;2022-11-25T02:11:41;98458.16;;;6.38;100.00
26807;BME280;14380;49.910;6.792;2022-11-25T02:14:09;98453.31;;;6.29;100.00
26807;BME280;14380;49.910;6.792;2022-11-25T02:16:37;98452.22;;;6.35;100.00
26807;BME280;14380;49.910;6.792;2022-11-25T02:19:07;98452.84;;;6.61;100.00
26807;BME280;14380;49.910;6.792;2022-11-25T02:21:41;98447.63;;;6.40;100.00
26807;BME280;14380;49.910;6.792;2022-11-25T02:24:15;98440.84;;;6.55;100.00
26807;BME280;14380;49.910;6.792;2022-11-25T02:26:45;98446.63;;;6.43;100.00
26807;BME280;14380;49.910;6.792;2022-11-25T02:29:11;98447.06;;;6.52;100.00
26807;BME280;14380;49.910;6.792;2022-11-25T02:31:38;98441.94;;;6.49;100.00
26807;BME280;14380;49.910;6.792;2022-11-25T02:34:04;98436.00;;;6.46;100.00
26807;BME280;14380;49.910;6.792;2022-11-25T02:36:31;98439.75;;;6.40;100.00
26807;BME280;14380;49.910;6.792;2022-11-25T02:38:59;98438.81;;;6.41;100.00
26807;BME280;14380;49.910;6.792;2022-11-25T02:41:29;98440.84;;;6.34;100.00
26807;BME280;14380;49.910;6.792;2022-11-25T02:43:59;98445.84;;;6.40;100.00
26807;BME280;14380;49.910;6.792;2022-11-25T02:46:27;98449.13;;;6.46;100.00
26807;BME280;14380;49.910;6.792;2022-11-25T02:48:55;98445.97;;;6.37;100.00
26807;BME280;14380;49.910;6.792;2022-11-25T02:51:25;98438.44;;;6.30;100.00
26807;BME280;14380;49.910;6.792;2022-11-25T02:53:52;98443.34;;;6.37;100.00
26807;BME280;14380;49.910;6.792;2022-11-25T02:56:21;98437.53;;;6.31;100.00
26807;BME280;14380;49.910;6.792;2022-11-25T02:58:48;98444.66;;;6.27;100.00
26807;BME280;14380;49.910;6.792;2022-11-25T03:01:16;98445.00;;;6.19;100.00
26807;BME280;14380;49.910;6.792;2022-11-25T03:03:42;98448.41;;;6.21;100.00
26807;BME280;14380;49.910;6.792;2022-11-25T03:06:09;98443.50;;;6.14;100.00
26807;BME280;14380;49.910;6.792;2022-11-25T03:08:36;98446.75;;;5.96;100.00
26807;BME280;14380;49.910;6.792;2022-11-25T03:11:02;98451.66;;;6.06;100.00
26807;BME280;14380;49.910;6.792;2022-11-25T03:13:29;98453.06;;;6.15;100.00
26807;BME280;14380;49.910;6.792;2022-11-25T03:15:55;98453.97;;;6.14;100.00
26807;BME280;14380;49.910;6.792;2022-11-25T03:18:24;98455.72;;;6.13;100.00
26807;BME280;14380;49.910;6.792;2022-11-25T03:20:51;98452.84;;;6.19;100.00
26807;BME280;14380;49.910;6.792;2022-11-25T03:23:17;98443.88;;;6.04;100.00
26807;BME280;14380;49.910;6.792;2022-11-25T03:25:44;98460.06;;;6.14;100.00
26807;BME280;14380;49.910;6.792;2022-11-25T03:28:10;98461.72;;;6.17;100.00
26807;BME280;14380;49.910;6.792;2022-11-25T03:30:37;98454.44;;;6.23;100.00
26807;BME280;14380;49.910;6.792;2022-11-25T03:33:04;98461.91;;;6.33;100.00
26807;BME280;14380;49.910;6.792;2022-11-25T03:35:32;98469.34;;;6.42;100.00
26807;BME280;14380;49.910;6.792;2022-11-25T03:37:58;98475.72;;;6.36;100.00
26807;BME280;14380;49.910;6.792;2022-11-25T03:40:25;98478.34;;;6.36;100.00
26807;BME280;14380;49.910;6.792;2022-11-25T03:42:51;98479.59;;;6.28;100.00
26807;BME280;14380;49.910;6.792;2022-11-25T03:45:18;98481.19;;;6.32;100.00
26807;BME280;14380;49.910;6.792;2022-11-25T03:47:45;98480.75;;;6.41;100.00
26807;BME280;14380;49.910;6.792;2022-11-25T03:50:12;98476.25;;;6.45;100.00
26807;BME280;14380;49.910;6.792;2022-11-25T03:52:41;98482.22;;;6.48;100.00
26807;BME280;14380;49.910;6.792;2022-11-25T03:55:08;98484.44;;;6.58;100.00
26807;BME280;14380;49.910;6.792;2022-11-25T03:57:36;98486.09;;;6.60;100.00
26807;BME280;14380;49.910;6.792;2022-11-25T04:00:04;98483.22;;;6.46;100.00
26807;BME280;14380;49.910;6.792;2022-11-25T04:02:31;98483.13;;;6.47;100.00
26807;BME280;14380;49.910;6.792;2022-11-25T04:04:57;98481.44;;;6.46;100.00
26807;BME280;14380;49.910;6.792;2022-11-25T04:07:24;98485.75;;;6.47;100.00
26807;BME280;14380;49.910;6.792;2022-11-25T04:09:51;98481.56;;;6.43;100.00
26807;BME280;14380;49.910;6.792;2022-11-25T04:12:18;98476.69;;;6.54;100.00
26807;BME280;14380;49.910;6.792;2022-11-25T04:15:03;98479.50;;;6.70;100.00
26807;BME280;14380;49.910;6.792;2022-11-25T04:17:29;98471.00;;;6.84;100.00
26807;BME280;14380;49.910;6.792;2022-11-25T04:19:56;98482.50;;;6.82;100.00
26807;BME280;14380;49.910;6.792;2022-11-25T04:22:22;98485.66;;;6.90;100.00
26807;BME280;14380;49.910;6.792;2022-11-25T04:24:49;98482.47;;;7.03;100.00
26807;BME280;14380;49.910;6.792;2022-11-25T04:27:17;98492.66;;;6.90;100.00
26807;BME280;14380;49.910;6.792;2022-11-25T04:29:43;98494.19;;;6.75;100.00
26807;BME280;14380;49.910;6.792;2022-11-25T04:32:10;98498.81;;;6.89;100.00
26807;BME280;14380;49.910;6.792;2022-11-25T04:34:36;98496.78;;;6.76;100.00
26807;BME280;14380;49.910;6.792;2022-11-25T04:37:03;98480.75;;;6.82;100.00
26807;BME280;14380;49.910;6.792;2022-11-25T04:39:29;98479.63;;;6.88;100.00
26807;BME280;14380;49.910;6.792;2022-11-25T04:41:56;98485.94;;;6.84;100.00
26807;BME280;14380;49.910;6.792;2022-11-25T04:44:38;98487.28;;;6.93;100.00
26807;BME280;14380;49.910;6.792;2022-11-25T04:47:04;98493.91;;;7.02;100.00
26807;BME280;14380;49.910;6.792;2022-11-25T04:49:31;98492.25;;;6.99;100.00
26807;BME280;14380;49.910;6.792;2022-11-25T04:51:57;98495.09;;;6.94;100.00
26807;BME280;14380;49.910;6.792;2022-11-25T04:54:23;98501.19;;;6.95;100.00
26807;BME280;14380;49.910;6.792;2022-11-25T04:56:50;98505.09;;;7.05;100.00
26807;BME280;14380;49.910;6.792;2022-11-25T04:59:16;98504.19;;;7.06;100.00
26807;BME280;14380;49.910;6.792;2022-11-25T05:02:02;98506.00;;;7.25;100.00
26807;BME280;14380;49.910;6.792;2022-11-25T05:04:28;98508.72;;;7.03;100.00
26807;BME280;14380;49.910;6.792;2022-11-25T05:06:55;98512.75;;;7.10;100.00
26807;BME280;14380;49.910;6.792;2022-11-25T05:09:21;98519.59;;;7.14;100.00
26807;BME280;14380;49.910;6.792;2022-11-25T05:11:48;98526.63;;;7.52;100.00
26807;BME280;14380;49.910;6.792;2022-11-25T05:14:14;98534.44;;;7.53;100.00
26807;BME280;14380;49.910;6.792;2022-11-25T05:16:41;98540.28;;;7.60;100.00
26807;BME280;14380;49.910;6.792;2022-11-25T05:19:09;98538.75;;;7.54;100.00
26807;BME280;14380;49.910;6.792;2022-11-25T05:21:35;98541.25;;;7.57;100.00
26807;BME280;14380;49.910;6.792;2022-11-25T05:24:02;98543.44;;;7.67;100.00
26807;BME280;14380;49.910;6.792;2022-11-25T05:26:29;98533.09;;;7.44;100.00
26807;BME280;14380;49.910;6.792;2022-11-25T05:28:55;98534.09;;;7.61;100.00
26807;BME280;14380;49.910;6.792;2022-11-25T05:31:22;98540.47;;;7.55;100.00
26807;BME280;14380;49.910;6.792;2022-11-25T05:33:48;98541.75;;;7.66;100.00
26807;BME280;14380;49.910;6.792;2022-11-25T05:36:16;98541.34;;;7.56;100.00
26807;BME280;14380;49.910;6.792;2022-11-25T05:38:43;98545.44;;;7.62;100.00
26807;BME280;14380;49.910;6.792;2022-11-25T05:41:10;98543.72;;;7.80;100.00
26807;BME280;14380;49.910;6.792;2022-11-25T05:43:37;98545.09;;;8.06;100.00
26807;BME280;14380;49.910;6.792;2022-11-25T05:46:04;98548.75;;;8.03;100.00
26807;BME280;14380;49.910;6.792;2022-11-25T05:48:31;98541.94;;;7.99;100.00
26807;BME280;14380;49.910;6.792;2022-11-25T05:50:58;98541.16;;;7.97;100.00
26807;BME280;14380;49.910;6.792;2022-11-25T05:53:26;98540.03;;;8.21;100.00
26807;BME280;14380;49.910;6.792;2022-11-25T05:55:53;98543.47;;;8.03;100.00
26807;BME280;14380;49.910;6.792;2022-11-25T05:58:21;98545.91;;;8.26;100.00
26807;BME280;14380;49.910;6.792;2022-11-25T06:00:48;98544.06;;;8.28;100.00
26807;BME280;14380;49.910;6.792;2022-11-25T06:03:14;98546.41;;;8.34;100.00
26807;BME280;14380;49.910;6.792;2022-11-25T06:05:41;98535.00;;;8.33;100.00
26807;BME280;14380;49.910;6.792;2022-11-25T06:08:08;98540.06;;;8.01;100.00
26807;BME280;14380;49.910;6.792;2022-11-25T06:10:38;98546.13;;;8.21;100.00
26807;BME280;14380;49.910;6.792;2022-11-25T06:13:05;98545.53;;;8.16;100.00
26807;BME280;14380;49.910;6.792;2022-11-25T06:15:31;98546.53;;;8.31;100.00
26807;BME280;14380;49.910;6.792;2022-11-25T06:17:58;98550.69;;;8.17;100.00
26807;BME280;14380;49.910;6.792;2022-11-25T06:20:24;98551.81;;;8.31;100.00
26807;BME280;14380;49.910;6.792;2022-11-25T06:22:51;98559.22;;;8.23;100.00
26807;BME280;14380;49.910;6.792;2022-11-25T06:25:18;98574.75;;;8.27;100.00
26807;BME280;14380;49.910;6.792;2022-11-25T06:27:46;98579.84;;;8.13;100.00
26807;BME280;14380;49.910;6.792;2022-11-25T06:30:14;98587.44;;;8.19;100.00
26807;BME280;14380;49.910;6.792;2022-11-25T06:32:40;98586.69;;;8.34;100.00
26807;BME280;14380;49.910;6.792;2022-11-25T06:35:08;98581.75;;;8.46;100.00
26807;BME280;14380;49.910;6.792;2022-11-25T06:37:34;98583.06;;;8.37;100.00
26807;BME280;14380;49.910;6.792;2022-11-25T06:40:01;98592.50;;;8.04;100.00
26807;BME280;14380;49.910;6.792;2022-11-25T06:42:28;98587.75;;;8.13;100.00
26807;BME280;14380;49.910;6.792;2022-11-25T06:44:56;98595.13;;;8.41;100.00
26807;BME280;14380;49.910;6.792;2022-11-25T06:47:22;98601.50;;;8.37;100.00
26807;BME280;14380;49.910;6.792;2022-11-25T06:49:49;98605.09;;;8.34;100.00
26807;BME280;14380;49.910;6.792;2022-11-25T06:52:15;98610.84;;;8.43;100.00
26807;BME280;14380;49.910;6.792;2022-11-25T06:54:42;98618.34;;;8.52;100.00
26807;BME280;14380;49.910;6.792;2022-11-25T06:57:10;98625.59;;;8.28;100.00
26807;BME280;14380;49.910;6.792;2022-11-25T06:59:37;98617.41;;;8.53;100.00
26807;BME280;14380;49.910;6.792;2022-11-25T07:02:05;98619.88;;;8.56;100.00
26807;BME280;14380;49.910;6.792;2022-11-25T07:04:33;98623.19;;;8.60;100.00
26807;BME280;14380;49.910;6.792;2022-11-25T07:07:00;98625.59;;;8.65;100.00
26807;BME280;14380;49.910;6.792;2022-11-25T07:09:26;98623.59;;;8.52;100.00
26807;BME280;14380;49.910;6.792;2022-11-25T07:12:02;98630.31;;;8.58;100.00
26807;BME280;14380;49.910;6.792;2022-11-25T07:14:36;98639.00;;;8.60;100.00
26807;BME280;14380;49.910;6.792;2022-11-25T07:17:02;98644.50;;;8.73;100.00
26807;BME280;14380;49.910;6.792;2022-11-25T07:19:30;98642.94;;;8.69;100.00
26807;BME280;14380;49.910;6.792;2022-11-25T07:22:00;98644.50;;;8.73;100.00
26807;BME280;14380;49.910;6.792;2022-11-25T07:24:27;98654.78;;;8.60;100.00
26807;BME280;14380;49.910;6.792;2022-11-25T07:26:53;98657.25;;;8.63;100.00
26807;BME280;14380;49.910;6.792;2022-11-25T07:29:20;98654.69;;;8.61;100.00
26807;BME280;14380;49.910;6.792;2022-11-25T07:31:46;98654.25;;;8.71;100.00
26807;BME280;14380;49.910;6.792;2022-11-25T07:34:14;98669.97;;;8.72;100.00
26807;BME280;14380;49.910;6.792;2022-11-25T07:36:44;98669.16;;;8.53;100.00
26807;BME280;14380;49.910;6.792;2022-11-25T07:39:13;98661.00;;;8.76;100.00
26807;BME280;14380;49.910;6.792;2022-11-25T07:41:40;98656.59;;;8.95;100.00
26807;BME280;14380;49.910;6.792;2022-11-25T07:44:08;98669.44;;;8.83;100.00
26807;BME280;14380;49.910;6.792;2022-11-25T07:46:37;98676.31;;;8.86;100.00
26807;BME280;14380;49.910;6.792;2022-11-25T07:49:05;98681.91;;;8.97;100.00
26807;BME280;14380;49.910;6.792;2022-11-25T07:51:34;98689.19;;;8.74;100.00
26807;BME280;14380;49.910;6.792;2022-11-25T07:54:05;98684.69;;;8.76;100.00
26807;BME280;14380;49.910;6.792;2022-11-25T07:56:33;98686.41;;;8.95;100.00
26807;BME280;14380;49.910;6.792;2022-11-25T07:59:00;98685.09;;;8.86;100.00
26807;BME280;14380;49.910;6.792;2022-11-25T08:01:27;98686.34;;;8.97;100.00
26807;BME280;14380;49.910;6.792;2022-11-25T08:03:54;98682.63;;;9.01;100.00
26807;BME280;14380;49.910;6.792;2022-11-25T08:06:22;98690.06;;;9.28;100.00
26807;BME280;14380;49.910;6.792;2022-11-25T08:08:49;98695.47;;;9.25;100.00
26807;BME280;14380;49.910;6.792;2022-11-25T08:11:21;98692.16;;;9.21;100.00
26807;BME280;14380;49.910;6.792;2022-11-25T08:13:48;98697.09;;;9.10;100.00
26807;BME280;14380;49.910;6.792;2022-11-25T08:16:17;98695.56;;;9.05;100.00
26807;BME280;14380;49.910;6.792;2022-11-25T08:18:44;98699.91;;;9.06;100.00
26807;BME280;14380;49.910;6.792;2022-11-25T08:21:12;98705.72;;;8.96;100.00
26807;BME280;14380;49.910;6.792;2022-11-25T08:23:40;98704.16;;;8.91;100.00
26807;BME280;14380;49.910;6.792;2022-11-25T08:26:10;98704.41;;;8.68;100.00
26807;BME280;14380;49.910;6.792;2022-11-25T08:28:39;98716.50;;;8.72;100.00
26807;BME280;14380;49.910;6.792;2022-11-25T08:31:08;98712.50;;;8.82;100.00
26807;BME280;14380;49.910;6.792;2022-11-25T08:33:35;98712.03;;;8.55;100.00
26807;BME280;14380;49.910;6.792;2022-11-25T08:36:03;98705.03;;;8.73;100.00
26807;BME280;14380;49.910;6.792;2022-11-25T08:38:30;98715.72;;;8.70;100.00
26807;BME280;14380;49.910;6.792;2022-11-25T08:40:56;98724.72;;;8.83;100.00
26807;BME280;14380;49.910;6.792;2022-11-25T08:43:24;98722.34;;;8.96;100.00
26807;BME280;14380;49.910;6.792;2022-11-25T08:45:52;98731.47;;;8.89;100.00
26807;BME280;14380;49.910;6.792;2022-11-25T08:48:20;98740.66;;;8.80;100.00
26807;BME280;14380;49.910;6.792;2022-11-25T08:50:48;98745.44;;;9.08;100.00
26807;BME280;14380;49.910;6.792;2022-11-25T08:53:16;98750.41;;;9.32;100.00
26807;BME280;14380;49.910;6.792;2022-11-25T08:55:43;98752.34;;;9.29;100.00
26807;BME280;14380;49.910;6.792;2022-11-25T08:58:09;98761.50;;;9.39;100.00
26807;BME280;14380;49.910;6.792;2022-11-25T09:00:38;98762.13;;;9.44;100.00
26807;BME280;14380;49.910;6.792;2022-11-25T09:03:06;98769.50;;;9.55;100.00
26807;BME280;14380;49.910;6.792;2022-11-25T09:05:33;98770.25;;;9.57;100.00
26807;BME280;14380;49.910;6.792;2022-11-25T09:08:00;98765.91;;;9.56;100.00
26807;BME280;14380;49.910;6.792;2022-11-25T09:10:27;98768.72;;;9.71;100.00
26807;BME280;14380;49.910;6.792;2022-11-25T09:12:54;98769.03;;;9.64;100.00
26807;BME280;14380;49.910;6.792;2022-11-25T09:15:20;98771.41;;;9.69;100.00
26807;BME280;14380;49.910;6.792;2022-11-25T09:17:47;98773.72;;;9.93;100.00
26807;BME280;14380;49.910;6.792;2022-11-25T09:20:14;98771.81;;;9.95;100.00
26807;BME280;14380;49.910;6.792;2022-11-25T09:22:41;98772.88;;;10.08;100.00
26807;BME280;14380;49.910;6.792;2022-11-25T09:25:08;98785.88;;;9.95;100.00
26807;BME280;14380;49.910;6.792;2022-11-25T09:27:34;98788.34;;;9.99;100.00
26807;BME280;14380;49.910;6.792;2022-11-25T09:30:01;98797.56;;;10.07;100.00
26807;BME280;14380;49.910;6.792;2022-11-25T09:32:28;98800.19;;;10.07;100.00
26807;BME280;14380;49.910;6.792;2022-11-25T09:34:54;98804.31;;;10.13;100.00
26807;BME280;14380;49.910;6.792;2022-11-25T09:37:22;98807.53;;;10.18;100.00
26807;BME280;14380;49.910;6.792;2022-11-25T09:39:49;98819.63;;;10.22;100.00
26807;BME280;14380;49.910;6.792;2022-11-25T09:42:27;98825.66;;;10.08;100.00
26807;BME280;14380;49.910;6.792;2022-11-25T09:45:19;98833.00;;;10.19;100.00
26807;BME280;14380;49.910;6.792;2022-11-25T09:48:22;98825.84;;;10.21;100.00
26807;BME280;14380;49.910;6.792;2022-11-25T09:51:00;98830.66;;;10.48;100.00
26807;BME280;14380;49.910;6.792;2022-11-25T09:53:39;98831.81;;;10.43;100.00
26807;BME280;14380;49.910;6.792;2022-11-25T09:56:13;98831.34;;;10.34;100.00
26807;BME280;14380;49.910;6.792;2022-11-25T09:58:45;98830.66;;;10.64;100.00
26807;BME280;14380;49.910;6.792;2022-11-25T10:01:16;98831.50;;;10.65;100.00
26807;BME280;14380;49.910;6.792;2022-11-25T10:03:45;98847.50;;;10.28;100.00
26807;BME280;14380;49.910;6.792;2022-11-25T10:06:16;98851.34;;;10.38;100.00
26807;BME280;14380;49.910;6.792;2022-11-25T10:08:48;98845.94;;;10.41;100.00
26807;BME280;14380;49.910;6.792;2022-11-25T10:11:21;98843.84;;;10.31;100.00
26807;BME280;14380;49.910;6.792;2022-11-25T10:13:55;98850.94;;;10.30;100.00
26807;BME280;14380;49.910;6.792;2022-11-25T10:16:33;98853.69;;;10.11;100.00
26807;BME280;14380;49.910;6.792;2022-11-25T10:19:06;98857.25;;;10.44;100.00
26807;BME280;14380;49.910;6.792;2022-11-25T10:21:37;98862.72;;;10.23;100.00
26807;BME280;14380;49.910;6.792;2022-11-25T10:24:11;98853.78;;;10.25;100.00
26807;BME280;14380;49.910;6.792;2022-11-25T10:26:41;98857.81;;;10.33;100.00
26807;BME280;14380;49.910;6.792;2022-11-25T10:29:26;98847.75;;;10.41;100.00
26807;BME280;14380;49.910;6.792;2022-11-25T10:32:00;98860.34;;;10.01;100.00
26807;BME280;14380;49.910;6.792;2022-11-25T10:34:33;98859.25;;;9.87;100.00
26807;BME280;14380;49.910;6.792;2022-11-25T10:37:01;98863.34;;;10.28;100.00
26807;BME280;14380;49.910;6.792;2022-11-25T10:39:33;98857.19;;;10.45;100.00
26807;BME280;14380;49.910;6.792;2022-11-25T10:42:02;98863.34;;;10.62;100.00
26807;BME280;14380;49.910;6.792;2022-11-25T10:44:33;98875.97;;;10.56;100.00
26807;BME280;14380;49.910;6.792;2022-11-25T10:47:11;98871.03;;;10.66;100.00
26807;BME280;14380;49.910;6.792;2022-11-25T10:49:50;98862.38;;;10.96;100.00
26807;BME280;14380;49.910;6.792;2022-11-25T10:52:20;98869.16;;;10.68;100.00
26807;BME280;14380;49.910;6.792;2022-11-25T10:54:56;98862.69;;;10.74;100.00
26807;BME280;14380;49.910;6.792;2022-11-25T10:57:27;98863.03;;;10.68;100.00
26807;BME280;14380;49.910;6.792;2022-11-25T10:59:55;98865.16;;;10.77;100.00
26807;BME280;14380;49.910;6.792;2022-11-25T11:02:25;98872.81;;;10.66;100.00
26807;BME280;14380;49.910;6.792;2022-11-25T11:04:56;98877.78;;;10.88;100.00
26807;BME280;14380;49.910;6.792;2022-11-25T11:07:24;98881.72;;;10.97;100.00
26807;BME280;14380;49.910;6.792;2022-11-25T11:09:51;98880.97;;;10.95;100.00
26807;BME280;14380;49.910;6.792;2022-11-25T11:12:22;98887.94;;;10.96;100.00
26807;BME280;14380;49.910;6.792;2022-11-25T11:14:51;98887.25;;;10.92;100.00
26807;BME280;14380;49.910;6.792;2022-11-25T11:17:29;98888.34;;;10.88;100.00
26807;BME280;14380;49.910;6.792;2022-11-25T11:20:03;98895.19;;;11.08;100.00
26807;BME280;14380;49.910;6.792;2022-11-25T11:22:36;98903.53;;;11.16;100.00
26807;BME280;14380;49.910;6.792;2022-11-25T11:25:23;98898.56;;;10.78;100.00
26807;BME280;14380;49.910;6.792;2022-11-25T11:27:53;98900.56;;;11.07;100.00
26807;BME280;14380;49.910;6.792;2022-11-25T11:30:21;98902.16;;;11.09;100.00
26807;BME280;14380;49.910;6.792;2022-11-25T11:32:54;98907.13;;;10.99;100.00
26807;BME280;14380;49.910;6.792;2022-11-25T11:35:24;98908.75;;;11.18;100.00
26807;BME280;14380;49.910;6.792;2022-11-25T11:37:57;98900.13;;;11.30;100.00
26807;BME280;14380;49.910;6.792;2022-11-25T11:40:34;98910.34;;;11.53;100.00
26807;BME280;14380;49.910;6.792;2022-11-25T11:43:19;98902.59;;;11.34;100.00
26807;BME280;14380;49.910;6.792;2022-11-25T11:46:01;98911.81;;;11.42;100.00
26807;BME280;14380;49.910;6.792;2022-11-25T11:48:37;98905.78;;;11.24;100.00
26807;BME280;14380;49.910;6.792;2022-11-25T11:51:12;98909.41;;;11.38;100.00
26807;BME280;14380;49.910;6.792;2022-11-25T11:53:49;98909.41;;;11.54;100.00
26807;BME280;14380;49.910;6.792;2022-11-25T11:56:26;98918.38;;;11.35;100.00
26807;BME280;14380;49.910;6.792;2022-11-25T12:02:03;98921.69;;;11.55;100.00
26807;BME280;14380;49.910;6.792;2022-11-25T12:04:36;98917.59;;;11.49;100.00
26807;BME280;14380;49.910;6.792;2022-11-25T12:07:06;98921.44;;;11.59;100.00
26807;BME280;14380;49.910;6.792;2022-11-25T12:09:37;98936.88;;;11.35;100.00
26807;BME280;14380;49.910;6.792;2022-11-25T12:12:14;98925.44;;;11.67;100.00
26807;BME280;14380;49.910;6.792;2022-11-25T12:14:47;98927.72;;;11.73;100.00
26807;BME280;14380;49.910;6.792;2022-11-25T12:17:18;98935.28;;;11.79;100.00
26807;BME280;14380;49.910;6.792;2022-11-25T12:19:51;98935.41;;;11.78;100.00
26807;BME280;14380;49.910;6.792;2022-11-25T12:22:24;98938.09;;;11.92;100.00
26807;BME280;14380;49.910;6.792;2022-11-25T12:24:57;98935.94;;;11.99;100.00
26807;BME280;14380;49.910;6.792;2022-11-25T12:27:30;98949.34;;;12.12;100.00
26807;BME280;14380;49.910;6.792;2022-11-25T12:30:04;98949.88;;;11.86;100.00
26807;BME280;14380;49.910;6.792;2022-11-25T12:32:48;98948.16;;;11.85;100.00
26807;BME280;14380;49.910;6.792;2022-11-25T12:35:21;98950.41;;;11.77;100.00
26807;BME280;14380;49.910;6.792;2022-11-25T12:37:56;98949.38;;;11.80;100.00
26807;BME280;14380;49.910;6.792;2022-11-25T12:40:29;98942.16;;;12.14;100.00
26807;BME280;14380;49.910;6.792;2022-11-25T12:43:07;98950.84;;;11.69;100.00
26807;BME280;14380;49.910;6.792;2022-11-25T12:45:38;98949.69;;;11.89;100.00
26807;BME280;14380;49.910;6.792;2022-11-25T12:48:08;98957.03;;;11.84;100.00
26807;BME280;14380;49.910;6.792;2022-11-25T12:50:43;98954.22;;;11.87;100.00
26807;BME280;14380;49.910;6.792;2022-11-25T12:53:18;98954.16;;;11.89;100.00
26807;BME280;14380;49.910;6.792;2022-11-25T12:55:48;98964.16;;;11.68;100.00
26807;BME280;14380;49.910;6.792;2022-11-25T12:58:39;98954.22;;;12.03;100.00
26807;BME280;14380;49.910;6.792;2022-11-25T13:07:15;98970.19;;;12.02;100.00
26807;BME280;14380;49.910;6.792;2022-11-25T13:09:50;98977.63;;;11.63;100.00
26807;BME280;14380;49.910;6.792;2022-11-25T13:12:31;98981.38;;;11.75;100.00
26807;BME280;14380;49.910;6.792;2022-11-25T13:15:21;98980.84;;;12.00;100.00
26807;BME280;14380;49.910;6.792;2022-11-25T13:17:56;98990.03;;;11.63;100.00